sensor_id;sensor_type;location;lat;lon;timestamp;temperature;humidity
20125;DHT22;10223;50.862;4.360;2022-08-19T00:01:55;23.00;99.90
20125;DHT22;10223;50.862;4.360;2022-08-19T00:04:24;22.90;99.90
20125;DHT22;10223;50.862;4.360;2022-08-19T00:06:52;22.70;99.90
20125;DHT22;10223;50.862;4.360;2022-08-19T00:09:20;22.50;99.90
20125;DHT22;10223;50.862;4.360;2022-08-19T00:11:49;22.50;99.90
20125;DHT22;10223;50.862;4.360;2022-08-19T00:14:17;22.50;99.90
20125;DHT22;10223;50.862;4.360;2022-08-19T00:16:46;22.60;99.90
20125;DHT22;10223;50.862;4.360;2022-08-19T00:19:13;22.50;99.90
20125;DHT22;10223;50.862;4.360;2022-08-19T00:21:40;22.60;99.90
20125;DHT22;10223;50.862;4.360;2022-08-19T00:24:10;22.60;99.90
20125;DHT22;10223;50.862;4.360;2022-08-19T00:26:39;22.50;99.90
20125;DHT22;10223;50.862;4.360;2022-08-19T00:29:10;22.60;99.90
20125;DHT22;10223;50.862;4.360;2022-08-19T00:31:38;22.50;99.90
20125;DHT22;10223;50.862;4.360;2022-08-19T00:34:05;22.60;99.90
20125;DHT22;10223;50.862;4.360;2022-08-19T00:36:33;22.50;99.90
20125;DHT22;10223;50.862;4.360;2022-08-19T00:39:00;22.50;99.90
20125;DHT22;10223;50.862;4.360;2022-08-19T00:41:28;22.60;99.90
20125;DHT22;10223;50.862;4.360;2022-08-19T00:44:02;22.40;99.90
20125;DHT22;10223;50.862;4.360;2022-08-19T00:46:31;22.20;99.90
20125;DHT22;10223;50.862;4.360;2022-08-19T00:48:59;22.20;99.90
20125;DHT22;10223;50.862;4.360;2022-08-19T00:51:29;22.20;99.90
20125;DHT22;10223;50.862;4.360;2022-08-19T00:53:58;22.20;99.90
20125;DHT22;10223;50.862;4.360;2022-08-19T00:56:26;22.20;99.90
20125;DHT22;10223;50.862;4.360;2022-08-19T00:58:55;22.20;99.90
20125;DHT22;10223;50.862;4.360;2022-08-19T01:01:23;22.20;99.90
20125;DHT22;10223;50.862;4.360;2022-08-19T01:03:51;22.20;99.90
20125;DHT22;10223;50.862;4.360;2022-08-19T01:06:18;22.20;99.90
20125;DHT22;10223;50.862;4.360;2022-08-19T01:08:45;22.10;99.90
20125;DHT22;10223;50.862;4.360;2022-08-19T01:11:12;22.00;99.90
20125;DHT22;10223;50.862;4.360;2022-08-19T01:13:39;21.90;99.90
20125;DHT22;10223;50.862;4.360;2022-08-19T01:16:08;22.00;99.90
20125;DHT22;10223;50.862;4.360;2022-08-19T01:18:39;21.90;99.90
20125;DHT22;10223;50.862;4.360;2022-08-19T01:21:12;21.90;99.90
20125;DHT22;10223;50.862;4.360;2022-08-19T01:23:43;22.10;99.90
20125;DHT22;10223;50.862;4.360;2022-08-19T01:26:13;22.10;99.90
20125;DHT22;10223;50.862;4.360;2022-08-19T01:28:41;22.10;99.90
20125;DHT22;10223;50.862;4.360;2022-08-19T01:31:14;22.10;99.90
20125;DHT22;10223;50.862;4.360;2022-08-19T01:33:41;22.20;99.90
20125;DHT22;10223;50.862;4.360;2022-08-19T01:36:10;22.20;99.90
20125;DHT22;10223;50.862;4.360;2022-08-19T01:38:41;22.10;99.90
20125;DHT22;10223;50.862;4.360;2022-08-19T01:41:10;22.00;99.90
20125;DHT22;10223;50.862;4.360;2022-08-19T01:43:38;21.90;99.90
20125;DHT22;10223;50.862;4.360;2022-08-19T01:46:05;21.90;99.90
20125;DHT22;10223;50.862;4.360;2022-08-19T01:48:34;21.90;99.90
20125;DHT22;10223;50.862;4.360;2022-08-19T01:51:02;21.90;99.90
20125;DHT22;10223;50.862;4.360;2022-08-19T01:53:29;21.90;99.90
20125;DHT22;10223;50.862;4.360;2022-08-19T01:55:56;21.80;99.90
20125;DHT22;10223;50.862;4.360;2022-08-19T01:58:27;21.90;99.90
20125;DHT22;10223;50.862;4.360;2022-08-19T02:00:56;21.80;99.90
20125;DHT22;10223;50.862;4.360;2022-08-19T02:03:23;21.80;99.90
20125;DHT22;10223;50.862;4.360;2022-08-19T02:05:55;21.60;99.90
20125;DHT22;10223;50.862;4.360;2022-08-19T02:08:22;21.60;99.90
20125;DHT22;10223;50.862;4.360;2022-08-19T02:10:49;21.50;99.90
20125;DHT22;10223;50.862;4.360;2022-08-19T02:13:16;21.50;99.90
20125;DHT22;10223;50.862;4.360;2022-08-19T02:15:44;21.40;99.90
20125;DHT22;10223;50.862;4.360;2022-08-19T02:18:12;21.20;99.90
20125;DHT22;10223;50.862;4.360;2022-08-19T02:20:40;21.20;99.90
20125;DHT22;10223;50.862;4.360;2022-08-19T02:23:08;21.10;99.90
20125;DHT22;10223;50.862;4.360;2022-08-19T02:25:35;21.10;99.90
20125;DHT22;10223;50.862;4.360;2022-08-19T02:28:02;21.10;99.90
20125;DHT22;10223;50.862;4.360;2022-08-19T02:30:29;21.10;99.90
20125;DHT22;10223;50.862;4.360;2022-08-19T02:32:58;20.90;99.90
20125;DHT22;10223;50.862;4.360;2022-08-19T02:35:25;20.60;99.90
20125;DHT22;10223;50.862;4.360;2022-08-19T02:37:52;20.60;99.90
20125;DHT22;10223;50.862;4.360;2022-08-19T02:40:36;20.70;99.90
20125;DHT22;10223;50.862;4.360;2022-08-19T02:43:04;20.50;99.90
20125;DHT22;10223;50.862;4.360;2022-08-19T02:45:32;20.20;99.90
20125;DHT22;10223;50.862;4.360;2022-08-19T02:48:02;20.10;99.90
20125;DHT22;10223;50.862;4.360;2022-08-19T02:50:30;20.00;99.90
20125;DHT22;10223;50.862;4.360;2022-08-19T02:52:57;19.90;99.90
20125;DHT22;10223;50.862;4.360;2022-08-19T02:55:24;20.00;99.90
20125;DHT22;10223;50.862;4.360;2022-08-19T02:57:51;20.10;99.90
20125;DHT22;10223;50.862;4.360;2022-08-19T03:00:18;20.00;99.90
20125;DHT22;10223;50.862;4.360;2022-08-19T03:02:44;19.90;99.90
20125;DHT22;10223;50.862;4.360;2022-08-19T03:05:13;19.90;99.90
20125;DHT22;10223;50.862;4.360;2022-08-19T03:07:40;20.00;99.90
20125;DHT22;10223;50.862;4.360;2022-08-19T03:10:08;19.80;99.90
20125;DHT22;10223;50.862;4.360;2022-08-19T03:12:36;19.80;99.90
20125;DHT22;10223;50.862;4.360;2022-08-19T03:15:04;19.70;99.90
20125;DHT22;10223;50.862;4.360;2022-08-19T03:17:33;19.70;99.90
20125;DHT22;10223;50.862;4.360;2022-08-19T03:20:00;19.70;99.90
20125;DHT22;10223;50.862;4.360;2022-08-19T03:22:28;19.50;99.90
20125;DHT22;10223;50.862;4.360;2022-08-19T03:24:55;19.40;99.90
20125;DHT22;10223;50.862;4.360;2022-08-19T03:27:22;19.40;99.90
20125;DHT22;10223;50.862;4.360;2022-08-19T03:29:49;19.30;99.90
20125;DHT22;10223;50.862;4.360;2022-08-19T03:32:16;19.20;99.90
20125;DHT22;10223;50.862;4.360;2022-08-19T03:34:43;19.20;99.90
20125;DHT22;10223;50.862;4.360;2022-08-19T03:37:11;19.20;99.90
20125;DHT22;10223;50.862;4.360;2022-08-19T03:39:41;19.20;99.90
20125;DHT22;10223;50.862;4.360;2022-08-19T03:42:08;19.10;99.90
20125;DHT22;10223;50.862;4.360;2022-08-19T03:44:35;19.00;99.90
20125;DHT22;10223;50.862;4.360;2022-08-19T03:47:04;19.00;99.90
20125;DHT22;10223;50.862;4.360;2022-08-19T03:49:32;19.00;99.90
20125;DHT22;10223;50.862;4.360;2022-08-19T03:52:01;19.10;99.90
20125;DHT22;10223;50.862;4.360;2022-08-19T03:54:28;19.10;99.90
20125;DHT22;10223;50.862;4.360;2022-08-19T03:56:57;19.10;99.90
20125;DHT22;10223;50.862;4.360;2022-08-19T03:59:26;18.80;99.90
20125;DHT22;10223;50.862;4.360;2022-08-19T04:01:54;18.70;99.90
20125;DHT22;10223;50.862;4.360;2022-08-19T04:04:22;18.70;99.90
20125;DHT22;10223;50.862;4.360;2022-08-19T04:06:49;18.90;99.90
20125;DHT22;10223;50.862;4.360;2022-08-19T04:09:17;18.80;99.90
20125;DHT22;10223;50.862;4.360;2022-08-19T04:11:47;18.90;99.90
20125;DHT22;10223;50.862;4.360;2022-08-19T04:14:18;18.80;99.90
20125;DHT22;10223;50.862;4.360;2022-08-19T04:16:47;18.70;99.90
20125;DHT22;10223;50.862;4.360;2022-08-19T04:19:16;18.60;99.90
20125;DHT22;10223;50.862;4.360;2022-08-19T04:21:44;18.50;99.90
20125;DHT22;10223;50.862;4.360;2022-08-19T04:24:12;18.40;99.90
20125;DHT22;10223;50.862;4.360;2022-08-19T04:26:40;18.40;99.90
20125;DHT22;10223;50.862;4.360;2022-08-19T04:29:10;18.20;99.90
20125;DHT22;10223;50.862;4.360;2022-08-19T04:31:39;18.10;99.90
20125;DHT22;10223;50.862;4.360;2022-08-19T04:34:08;18.10;99.90
20125;DHT22;10223;50.862;4.360;2022-08-19T04:36:38;18.10;99.90
20125;DHT22;10223;50.862;4.360;2022-08-19T04:39:09;18.00;99.90
20125;DHT22;10223;50.862;4.360;2022-08-19T04:41:37;18.10;99.90
20125;DHT22;10223;50.862;4.360;2022-08-19T04:44:30;18.00;99.90
20125;DHT22;10223;50.862;4.360;2022-08-19T04:46:58;18.00;99.90
20125;DHT22;10223;50.862;4.360;2022-08-19T04:49:25;18.00;99.90
20125;DHT22;10223;50.862;4.360;2022-08-19T04:51:53;18.00;99.90
20125;DHT22;10223;50.862;4.360;2022-08-19T04:54:23;17.80;99.90
20125;DHT22;10223;50.862;4.360;2022-08-19T04:56:51;17.80;99.90
20125;DHT22;10223;50.862;4.360;2022-08-19T04:59:18;17.70;99.90
20125;DHT22;10223;50.862;4.360;2022-08-19T05:01:46;17.60;99.90
20125;DHT22;10223;50.862;4.360;2022-08-19T05:04:18;17.60;99.90
20125;DHT22;10223;50.862;4.360;2022-08-19T05:06:47;17.50;99.90
20125;DHT22;10223;50.862;4.360;2022-08-19T05:09:15;17.60;99.90
20125;DHT22;10223;50.862;4.360;2022-08-19T05:11:42;17.70;99.90
20125;DHT22;10223;50.862;4.360;2022-08-19T05:14:11;17.70;99.90
20125;DHT22;10223;50.862;4.360;2022-08-19T05:16:39;17.70;99.90
20125;DHT22;10223;50.862;4.360;2022-08-19T05:19:06;17.80;99.90
20125;DHT22;10223;50.862;4.360;2022-08-19T05:21:52;17.70;99.90
20125;DHT22;10223;50.862;4.360;2022-08-19T05:24:36;17.80;99.90
20125;DHT22;10223;50.862;4.360;2022-08-19T05:27:04;17.80;99.90
20125;DHT22;10223;50.862;4.360;2022-08-19T05:29:32;17.80;99.90
20125;DHT22;10223;50.862;4.360;2022-08-19T05:32:01;17.70;99.90
20125;DHT22;10223;50.862;4.360;2022-08-19T05:34:28;17.80;99.90
20125;DHT22;10223;50.862;4.360;2022-08-19T05:37:01;17.80;99.90
20125;DHT22;10223;50.862;4.360;2022-08-19T05:39:31;17.80;99.90
20125;DHT22;10223;50.862;4.360;2022-08-19T05:42:00;17.80;99.90
20125;DHT22;10223;50.862;4.360;2022-08-19T05:44:30;17.90;99.90
20125;DHT22;10223;50.862;4.360;2022-08-19T05:46:58;18.00;99.90
20125;DHT22;10223;50.862;4.360;2022-08-19T05:49:26;18.00;99.90
20125;DHT22;10223;50.862;4.360;2022-08-19T05:51:54;18.20;99.90
20125;DHT22;10223;50.862;4.360;2022-08-19T05:54:23;18.30;99.90
20125;DHT22;10223;50.862;4.360;2022-08-19T05:56:51;18.50;99.90
20125;DHT22;10223;50.862;4.360;2022-08-19T05:59:19;18.50;99.90
20125;DHT22;10223;50.862;4.360;2022-08-19T06:01:48;18.50;99.90
20125;DHT22;10223;50.862;4.360;2022-08-19T06:04:17;18.60;99.90
20125;DHT22;10223;50.862;4.360;2022-08-19T06:06:45;18.50;99.90
20125;DHT22;10223;50.862;4.360;2022-08-19T06:09:13;18.50;99.90
20125;DHT22;10223;50.862;4.360;2022-08-19T06:11:43;18.60;99.90
20125;DHT22;10223;50.862;4.360;2022-08-19T06:14:14;18.60;99.90
20125;DHT22;10223;50.862;4.360;2022-08-19T06:16:42;18.60;99.90
20125;DHT22;10223;50.862;4.360;2022-08-19T06:19:10;18.70;99.90
20125;DHT22;10223;50.862;4.360;2022-08-19T06:21:40;18.70;99.90
20125;DHT22;10223;50.862;4.360;2022-08-19T06:24:10;18.60;99.90
20125;DHT22;10223;50.862;4.360;2022-08-19T06:26:41;18.60;99.90
20125;DHT22;10223;50.862;4.360;2022-08-19T06:29:11;18.60;99.90
20125;DHT22;10223;50.862;4.360;2022-08-19T06:31:42;18.60;99.90
20125;DHT22;10223;50.862;4.360;2022-08-19T06:34:09;18.70;99.90
20125;DHT22;10223;50.862;4.360;2022-08-19T06:36:38;18.70;99.90
20125;DHT22;10223;50.862;4.360;2022-08-19T06:39:08;18.80;99.90
20125;DHT22;10223;50.862;4.360;2022-08-19T06:41:37;18.80;99.90
20125;DHT22;10223;50.862;4.360;2022-08-19T06:44:07;18.70;99.90
20125;DHT22;10223;50.862;4.360;2022-08-19T06:46:35;18.80;99.90
20125;DHT22;10223;50.862;4.360;2022-08-19T06:49:02;19.00;99.90
20125;DHT22;10223;50.862;4.360;2022-08-19T06:51:29;19.10;99.90
20125;DHT22;10223;50.862;4.360;2022-08-19T06:53:58;19.10;99.90
20125;DHT22;10223;50.862;4.360;2022-08-19T06:56:27;19.10;99.90
20125;DHT22;10223;50.862;4.360;2022-08-19T06:58:57;19.20;99.90
20125;DHT22;10223;50.862;4.360;2022-08-19T07:01:25;19.40;99.90
20125;DHT22;10223;50.862;4.360;2022-08-19T07:03:52;19.30;99.90
20125;DHT22;10223;50.862;4.360;2022-08-19T07:06:19;19.20;99.90
20125;DHT22;10223;50.862;4.360;2022-08-19T07:08:47;19.20;99.90
20125;DHT22;10223;50.862;4.360;2022-08-19T07:11:16;19.20;99.90
20125;DHT22;10223;50.862;4.360;2022-08-19T07:13:44;19.20;99.90
20125;DHT22;10223;50.862;4.360;2022-08-19T07:16:16;19.20;99.90
20125;DHT22;10223;50.862;4.360;2022-08-19T07:18:46;19.40;99.90
20125;DHT22;10223;50.862;4.360;2022-08-19T07:21:15;19.50;99.90
20125;DHT22;10223;50.862;4.360;2022-08-19T07:23:43;19.60;99.90
20125;DHT22;10223;50.862;4.360;2022-08-19T07:26:11;19.70;99.90
20125;DHT22;10223;50.862;4.360;2022-08-19T07:28:40;19.50;99.90
20125;DHT22;10223;50.862;4.360;2022-08-19T07:31:11;19.50;99.90
20125;DHT22;10223;50.862;4.360;2022-08-19T07:33:39;19.70;99.90
20125;DHT22;10223;50.862;4.360;2022-08-19T07:36:09;19.80;99.90
20125;DHT22;10223;50.862;4.360;2022-08-19T07:38:39;19.90;99.90
20125;DHT22;10223;50.862;4.360;2022-08-19T07:41:06;20.00;99.90
20125;DHT22;10223;50.862;4.360;2022-08-19T07:43:33;20.20;99.90
20125;DHT22;10223;50.862;4.360;2022-08-19T07:46:00;20.30;99.90
20125;DHT22;10223;50.862;4.360;2022-08-19T07:48:28;20.30;99.90
20125;DHT22;10223;50.862;4.360;2022-08-19T07:50:57;20.20;99.90
20125;DHT22;10223;50.862;4.360;2022-08-19T07:53:26;20.30;99.90
20125;DHT22;10223;50.862;4.360;2022-08-19T07:55:53;20.40;99.90
20125;DHT22;10223;50.862;4.360;2022-08-19T07:58:21;20.40;99.90
20125;DHT22;10223;50.862;4.360;2022-08-19T08:00:50;20.50;99.90
20125;DHT22;10223;50.862;4.360;2022-08-19T08:03:20;20.40;99.90
20125;DHT22;10223;50.862;4.360;2022-08-19T08:06:07;20.10;99.90
20125;DHT22;10223;50.862;4.360;2022-08-19T08:08:53;20.20;99.90
20125;DHT22;10223;50.862;4.360;2022-08-19T08:11:43;20.30;99.90
20125;DHT22;10223;50.862;4.360;2022-08-19T08:14:16;20.60;99.90
20125;DHT22;10223;50.862;4.360;2022-08-19T08:16:43;20.80;99.90
20125;DHT22;10223;50.862;4.360;2022-08-19T08:19:11;20.80;99.90
20125;DHT22;10223;50.862;4.360;2022-08-19T08:21:40;20.90;99.90
20125;DHT22;10223;50.862;4.360;2022-08-19T08:24:09;20.80;99.90
20125;DHT22;10223;50.862;4.360;2022-08-19T08:26:36;20.90;99.90
20125;DHT22;10223;50.862;4.360;2022-08-19T08:29:03;20.80;99.90
20125;DHT22;10223;50.862;4.360;2022-08-19T08:31:30;20.80;99.90
20125;DHT22;10223;50.862;4.360;2022-08-19T08:33:59;20.60;99.90
20125;DHT22;10223;50.862;4.360;2022-08-19T08:36:26;20.70;99.90
20125;DHT22;10223;50.862;4.360;2022-08-19T08:38:53;20.90;99.90
20125;DHT22;10223;50.862;4.360;2022-08-19T08:41:28;21.00;99.90
20125;DHT22;10223;50.862;4.360;2022-08-19T08:43:56;21.20;99.90
20125;DHT22;10223;50.862;4.360;2022-08-19T08:46:29;21.40;99.90
20125;DHT22;10223;50.862;4.360;2022-08-19T08:49:04;21.30;99.90
20125;DHT22;10223;50.862;4.360;2022-08-19T08:51:37;21.00;99.90
20125;DHT22;10223;50.862;4.360;2022-08-19T08:54:07;20.70;99.90
20125;DHT22;10223;50.862;4.360;2022-08-19T08:56:37;20.90;99.90
20125;DHT22;10223;50.862;4.360;2022-08-19T08:59:07;20.90;99.90
20125;DHT22;10223;50.862;4.360;2022-08-19T09:01:36;21.00;99.90
20125;DHT22;10223;50.862;4.360;2022-08-19T09:04:05;21.00;99.90
20125;DHT22;10223;50.862;4.360;2022-08-19T09:06:38;21.10;99.90
20125;DHT22;10223;50.862;4.360;2022-08-19T09:09:15;21.00;99.90
20125;DHT22;10223;50.862;4.360;2022-08-19T09:11:52;21.00;99.90
20125;DHT22;10223;50.862;4.360;2022-08-19T09:14:34;21.00;99.90
20125;DHT22;10223;50.862;4.360;2022-08-19T09:17:01;21.00;99.90
20125;DHT22;10223;50.862;4.360;2022-08-19T09:19:29;21.10;99.90
20125;DHT22;10223;50.862;4.360;2022-08-19T09:21:56;21.20;99.90
20125;DHT22;10223;50.862;4.360;2022-08-19T09:24:25;21.40;99.90
20125;DHT22;10223;50.862;4.360;2022-08-19T09:26:53;21.30;99.90
20125;DHT22;10223;50.862;4.360;2022-08-19T09:29:20;21.30;99.90
20125;DHT22;10223;50.862;4.360;2022-08-19T09:31:47;21.20;99.90
20125;DHT22;10223;50.862;4.360;2022-08-19T09:34:15;21.20;99.90
20125;DHT22;10223;50.862;4.360;2022-08-19T09:36:42;21.20;99.90
20125;DHT22;10223;50.862;4.360;2022-08-19T09:39:09;21.50;99.90
20125;DHT22;10223;50.862;4.360;2022-08-19T09:41:35;21.70;99.90
20125;DHT22;10223;50.862;4.360;2022-08-19T09:44:04;21.90;99.90
20125;DHT22;10223;50.862;4.360;2022-08-19T09:46:31;21.90;99.90
20125;DHT22;10223;50.862;4.360;2022-08-19T09:48:58;22.00;99.90
20125;DHT22;10223;50.862;4.360;2022-08-19T09:51:26;22.10;99.90
20125;DHT22;10223;50.862;4.360;2022-08-19T09:53:59;21.90;99.90
20125;DHT22;10223;50.862;4.360;2022-08-19T09:56:26;21.80;99.90
20125;DHT22;10223;50.862;4.360;2022-08-19T09:58:53;21.80;99.90
20125;DHT22;10223;50.862;4.360;2022-08-19T10:01:23;21.60;99.90
20125;DHT22;10223;50.862;4.360;2022-08-19T10:03:52;21.50;99.90
20125;DHT22;10223;50.862;4.360;2022-08-19T10:06:20;21.50;99.90
20125;DHT22;10223;50.862;4.360;2022-08-19T10:08:48;21.50;99.90
20125;DHT22;10223;50.862;4.360;2022-08-19T10:11:15;21.50;99.90
20125;DHT22;10223;50.862;4.360;2022-08-19T10:13:43;21.50;99.90
20125;DHT22;10223;50.862;4.360;2022-08-19T10:16:12;21.60;99.90
20125;DHT22;10223;50.862;4.360;2022-08-19T10:18:40;21.80;99.90
20125;DHT22;10223;50.862;4.360;2022-08-19T10:21:12;21.90;99.90
20125;DHT22;10223;50.862;4.360;2022-08-19T10:23:41;21.90;99.90
20125;DHT22;10223;50.862;4.360;2022-08-19T10:26:11;21.80;99.90
20125;DHT22;10223;50.862;4.360;2022-08-19T10:28:39;21.60;99.90
20125;DHT22;10223;50.862;4.360;2022-08-19T10:31:08;21.60;99.90
20125;DHT22;10223;50.862;4.360;2022-08-19T10:33:36;21.60;99.90
20125;DHT22;10223;50.862;4.360;2022-08-19T10:36:07;21.80;99.90
20125;DHT22;10223;50.862;4.360;2022-08-19T10:38:35;21.90;99.90
20125;DHT22;10223;50.862;4.360;2022-08-19T10:41:10;22.10;99.90
20125;DHT22;10223;50.862;4.360;2022-08-19T10:43:39;22.20;99.90
20125;DHT22;10223;50.862;4.360;2022-08-19T10:46:07;22.10;99.90
20125;DHT22;10223;50.862;4.360;2022-08-19T10:48:34;22.10;99.90
20125;DHT22;10223;50.862;4.360;2022-08-19T10:51:02;21.90;99.90
20125;DHT22;10223;50.862;4.360;2022-08-19T10:53:48;21.90;99.90
20125;DHT22;10223;50.862;4.360;2022-08-19T10:56:15;22.00;99.90
20125;DHT22;10223;50.862;4.360;2022-08-19T10:58:59;22.10;99.90
20125;DHT22;10223;50.862;4.360;2022-08-19T11:01:29;22.20;99.90
20125;DHT22;10223;50.862;4.360;2022-08-19T11:03:56;22.30;99.90
20125;DHT22;10223;50.862;4.360;2022-08-19T11:06:24;22.40;99.90
20125;DHT22;10223;50.862;4.360;2022-08-19T11:08:53;22.50;99.90
20125;DHT22;10223;50.862;4.360;2022-08-19T11:11:20;22.50;99.90
20125;DHT22;10223;50.862;4.360;2022-08-19T11:13:48;22.60;99.90
20125;DHT22;10223;50.862;4.360;2022-08-19T11:16:16;22.70;99.90
20125;DHT22;10223;50.862;4.360;2022-08-19T11:18:45;22.70;99.90
20125;DHT22;10223;50.862;4.360;2022-08-19T11:21:15;22.40;99.90
20125;DHT22;10223;50.862;4.360;2022-08-19T11:23:45;22.20;99.90
20125;DHT22;10223;50.862;4.360;2022-08-19T11:26:14;22.10;99.90
20125;DHT22;10223;50.862;4.360;2022-08-19T11:28:42;22.20;99.90
20125;DHT22;10223;50.862;4.360;2022-08-19T11:31:10;22.40;99.90
20125;DHT22;10223;50.862;4.360;2022-08-19T11:33:38;22.50;99.90
20125;DHT22;10223;50.862;4.360;2022-08-19T11:36:05;22.30;99.90
20125;DHT22;10223;50.862;4.360;2022-08-19T11:38:32;22.00;99.90
20125;DHT22;10223;50.862;4.360;2022-08-19T11:41:02;21.90;99.90
20125;DHT22;10223;50.862;4.360;2022-08-19T11:43:31;21.60;99.90
20125;DHT22;10223;50.862;4.360;2022-08-19T11:45:58;21.70;99.90
20125;DHT22;10223;50.862;4.360;2022-08-19T11:48:25;21.80;99.90
20125;DHT22;10223;50.862;4.360;2022-08-19T11:51:03;22.00;99.90
20125;DHT22;10223;50.862;4.360;2022-08-19T11:53:32;22.00;99.90
20125;DHT22;10223;50.862;4.360;2022-08-19T11:55:59;22.00;99.90
20125;DHT22;10223;50.862;4.360;2022-08-19T11:58:26;22.10;99.90
20125;DHT22;10223;50.862;4.360;2022-08-19T12:00:56;22.30;99.90
20125;DHT22;10223;50.862;4.360;2022-08-19T12:03:23;22.10;99.90
20125;DHT22;10223;50.862;4.360;2022-08-19T12:05:50;22.00;99.90
20125;DHT22;10223;50.862;4.360;2022-08-19T12:08:18;22.30;99.90
20125;DHT22;10223;50.862;4.360;2022-08-19T12:10:45;22.50;99.90
20125;DHT22;10223;50.862;4.360;2022-08-19T12:13:13;22.60;99.90
20125;DHT22;10223;50.862;4.360;2022-08-19T12:15:45;22.80;99.90
20125;DHT22;10223;50.862;4.360;2022-08-19T12:18:13;23.00;99.90
20125;DHT22;10223;50.862;4.360;2022-08-19T12:20:42;23.20;99.90
20125;DHT22;10223;50.862;4.360;2022-08-19T12:23:11;23.10;99.90
20125;DHT22;10223;50.862;4.360;2022-08-19T12:25:43;23.20;99.90
20125;DHT22;10223;50.862;4.360;2022-08-19T12:28:18;23.30;99.90
20125;DHT22;10223;50.862;4.360;2022-08-19T12:30:45;23.40;99.90
20125;DHT22;10223;50.862;4.360;2022-08-19T12:33:14;23.60;99.90
20125;DHT22;10223;50.862;4.360;2022-08-19T12:35:41;23.70;99.90
20125;DHT22;10223;50.862;4.360;2022-08-19T12:38:09;23.70;99.90
20125;DHT22;10223;50.862;4.360;2022-08-19T12:40:36;23.70;99.90
20125;DHT22;10223;50.862;4.360;2022-08-19T12:43:04;23.70;99.90
20125;DHT22;10223;50.862;4.360;2022-08-19T12:45:31;23.80;99.90
20125;DHT22;10223;50.862;4.360;2022-08-19T12:47:58;23.80;99.90
20125;DHT22;10223;50.862;4.360;2022-08-19T12:50:26;23.50;99.90
20125;DHT22;10223;50.862;4.360;2022-08-19T12:52:53;23.60;99.90
20125;DHT22;10223;50.862;4.360;2022-08-19T12:55:20;23.70;99.90
20125;DHT22;10223;50.862;4.360;2022-08-19T12:57:47;23.60;99.90
20125;DHT22;10223;50.862;4.360;2022-08-19T13:00:16;23.70;99.90
20125;DHT22;10223;50.862;4.360;2022-08-19T13:02:45;23.70;99.90
20125;DHT22;10223;50.862;4.360;2022-08-19T13:05:14;23.70;99.90
20125;DHT22;10223;50.862;4.360;2022-08-19T13:07:44;23.90;99.90
20125;DHT22;10223;50.862;4.360;2022-08-19T13:10:13;23.90;99.90
20125;DHT22;10223;50.862;4.360;2022-08-19T13:12:40;24.20;99.90
20125;DHT22;10223;50.862;4.360;2022-08-19T13:15:08;24.60;99.90
20125;DHT22;10223;50.862;4.360;2022-08-19T13:17:36;24.70;99.90
20125;DHT22;10223;50.862;4.360;2022-08-19T13:20:04;24.90;99.90
20125;DHT22;10223;50.862;4.360;2022-08-19T13:22:32;24.60;99.90
20125;DHT22;10223;50.862;4.360;2022-08-19T13:25:03;24.20;99.90
20125;DHT22;10223;50.862;4.360;2022-08-19T13:27:31;24.30;99.90
20125;DHT22;10223;50.862;4.360;2022-08-19T13:29:57;24.20;99.90
20125;DHT22;10223;50.862;4.360;2022-08-19T13:32:42;24.30;99.90
20125;DHT22;10223;50.862;4.360;2022-08-19T13:35:26;24.50;99.90
20125;DHT22;10223;50.862;4.360;2022-08-19T13:37:53;24.70;99.90
20125;DHT22;10223;50.862;4.360;2022-08-19T13:40:23;24.50;99.90
20125;DHT22;10223;50.862;4.360;2022-08-19T13:42:54;24.40;99.90
20125;DHT22;10223;50.862;4.360;2022-08-19T13:45:23;24.40;99.90
20125;DHT22;10223;50.862;4.360;2022-08-19T13:47:53;24.40;99.90
20125;DHT22;10223;50.862;4.360;2022-08-19T13:50:22;24.50;99.90
20125;DHT22;10223;50.862;4.360;2022-08-19T13:52:50;24.60;99.90
20125;DHT22;10223;50.862;4.360;2022-08-19T13:55:17;24.40;99.90
20125;DHT22;10223;50.862;4.360;2022-08-19T13:57:50;24.20;99.90
20125;DHT22;10223;50.862;4.360;2022-08-19T14:00:17;24.30;99.90
20125;DHT22;10223;50.862;4.360;2022-08-19T14:02:50;24.40;99.90
20125;DHT22;10223;50.862;4.360;2022-08-19T14:05:18;24.30;99.90
20125;DHT22;10223;50.862;4.360;2022-08-19T14:07:45;24.10;99.90
20125;DHT22;10223;50.862;4.360;2022-08-19T14:10:13;24.00;99.90
20125;DHT22;10223;50.862;4.360;2022-08-19T14:12:41;24.20;99.90
20125;DHT22;10223;50.862;4.360;2022-08-19T14:15:11;24.20;99.90
20125;DHT22;10223;50.862;4.360;2022-08-19T14:17:38;24.00;99.90
20125;DHT22;10223;50.862;4.360;2022-08-19T14:20:07;23.90;99.90
20125;DHT22;10223;50.862;4.360;2022-08-19T14:22:35;23.50;99.90
20125;DHT22;10223;50.862;4.360;2022-08-19T14:25:03;23.40;99.90
20125;DHT22;10223;50.862;4.360;2022-08-19T14:27:31;23.40;99.90
20125;DHT22;10223;50.862;4.360;2022-08-19T14:29:59;23.50;99.90
20125;DHT22;10223;50.862;4.360;2022-08-19T14:32:27;23.20;99.90
20125;DHT22;10223;50.862;4.360;2022-08-19T14:34:54;23.10;99.90
20125;DHT22;10223;50.862;4.360;2022-08-19T14:37:21;23.00;99.90
20125;DHT22;10223;50.862;4.360;2022-08-19T14:39:48;22.90;99.90
20125;DHT22;10223;50.862;4.360;2022-08-19T14:42:15;22.70;99.90
20125;DHT22;10223;50.862;4.360;2022-08-19T14:44:42;22.50;99.90
20125;DHT22;10223;50.862;4.360;2022-08-19T14:47:09;22.40;99.90
20125;DHT22;10223;50.862;4.360;2022-08-19T14:49:38;22.40;99.90
20125;DHT22;10223;50.862;4.360;2022-08-19T14:52:05;22.20;99.90
20125;DHT22;10223;50.862;4.360;2022-08-19T14:54:32;22.00;99.90
20125;DHT22;10223;50.862;4.360;2022-08-19T14:56:59;22.00;99.90
20125;DHT22;10223;50.862;4.360;2022-08-19T14:59:26;22.10;99.90
20125;DHT22;10223;50.862;4.360;2022-08-19T15:01:53;22.20;99.90
20125;DHT22;10223;50.862;4.360;2022-08-19T15:04:20;22.30;99.90
20125;DHT22;10223;50.862;4.360;2022-08-19T15:06:48;22.30;99.90
20125;DHT22;10223;50.862;4.360;2022-08-19T15:09:16;22.50;99.90
20125;DHT22;10223;50.862;4.360;2022-08-19T15:11:47;23.10;99.90
20125;DHT22;10223;50.862;4.360;2022-08-19T15:14:15;23.40;99.90
20125;DHT22;10223;50.862;4.360;2022-08-19T15:16:42;23.50;99.90
20125;DHT22;10223;50.862;4.360;2022-08-19T15:19:09;23.80;99.90
20125;DHT22;10223;50.862;4.360;2022-08-19T15:21:37;23.80;99.90
20125;DHT22;10223;50.862;4.360;2022-08-19T15:24:05;24.10;99.90
20125;DHT22;10223;50.862;4.360;2022-08-19T15:26:32;24.40;99.90
20125;DHT22;10223;50.862;4.360;2022-08-19T15:29:00;24.40;99.90
20125;DHT22;10223;50.862;4.360;2022-08-19T15:31:28;24.40;99.90
20125;DHT22;10223;50.862;4.360;2022-08-19T15:34:02;24.60;99.90
20125;DHT22;10223;50.862;4.360;2022-08-19T15:36:31;24.50;99.90
20125;DHT22;10223;50.862;4.360;2022-08-19T15:38:58;24.50;99.90
20125;DHT22;10223;50.862;4.360;2022-08-19T15:41:28;23.90;99.90